createdAt,value
2018-09-12T00:01:19.299Z,98234.35
2018-09-12T00:03:47.803Z,98228.41
2018-09-12T00:06:16.295Z,98223.23
2018-09-12T00:08:44.797Z,98228.34
2018-09-12T00:11:13.305Z,98231.40
2018-09-12T00:13:41.849Z,98228.34
2018-09-12T00:16:10.343Z,98230.52
2018-09-12T00:18:38.912Z,98232.67
2018-09-12T00:21:07.598Z,98227.06
2018-09-12T00:23:36.634Z,98232.67
2018-09-12T00:26:05.196Z,98241.27
2018-09-12T00:28:33.707Z,98242.61
2018-09-12T00:31:02.242Z,98236.58
2018-09-12T00:33:30.776Z,98232.73
2018-09-12T00:35:59.282Z,98236.14
2018-09-12T00:38:27.822Z,98235.35
2018-09-12T00:40:56.349Z,98233.70
2018-09-12T00:43:24.951Z,98230.34
2018-09-12T00:45:53.454Z,98236.75
2018-09-12T00:48:22.015Z,98229.45
2018-09-12T00:50:50.544Z,98229.86
2018-09-12T00:53:19.077Z,98229.45
2018-09-12T00:55:47.605Z,98224.34
2018-09-12T00:58:16.100Z,98219.27
2018-09-12T01:00:44.607Z,98214.97
2018-09-12T01:03:13.162Z,98217.11
2018-09-12T01:05:42.729Z,98214.55
2018-09-12T01:08:12.602Z,98216.70
2018-09-12T01:10:41.144Z,98214.14
2018-09-12T01:13:10.007Z,98213.27
2018-09-12T01:15:38.553Z,98209.03
2018-09-12T01:18:07.156Z,98204.30
2018-09-12T01:20:35.662Z,98203.45
2018-09-12T01:23:04.146Z,98203.91
2018-09-12T01:25:32.636Z,98200.45
2018-09-12T01:28:01.190Z,98197.89
2018-09-12T01:30:29.735Z,98188.93
2018-09-12T01:32:58.247Z,98188.93
2018-09-12T01:35:26.751Z,98189.36
2018-09-12T01:37:55.279Z,98190.64
2018-09-12T01:40:23.774Z,98193.26
2018-09-12T01:42:52.300Z,98188.53
2018-09-12T01:45:20.909Z,98186.37
2018-09-12T01:47:49.798Z,98186.80
2018-09-12T01:50:18.326Z,98185.52
2018-09-12T01:52:47.499Z,98177.84
2018-09-12T01:55:16.095Z,98184.64
2018-09-12T01:57:44.759Z,98181.25
2018-09-12T02:00:18.451Z,98187.25
2018-09-12T02:02:47.979Z,98187.25
2018-09-12T02:05:16.491Z,98187.25
2018-09-12T02:07:45.006Z,98183.86
2018-09-12T02:10:13.754Z,98180.02
2018-09-12T02:12:42.303Z,98177.89
2018-09-12T02:15:10.825Z,98174.84
2018-09-12T02:17:39.392Z,98176.61
2018-09-12T02:20:07.964Z,98166.70
2018-09-12T02:22:36.491Z,98171.88
2018-09-12T02:25:05.083Z,98163.75
2018-09-12T02:27:33.683Z,98165.03
2018-09-12T02:30:02.221Z,98161.19
2018-09-12T02:32:30.789Z,98160.30
2018-09-12T02:34:59.307Z,98153.50
2018-09-12T02:37:27.833Z,98156.91
2018-09-12T02:39:56.356Z,98153.95
2018-09-12T02:42:24.895Z,98151.80
2018-09-12T02:44:53.441Z,98147.10
2018-09-12T02:47:27.166Z,98143.66
2018-09-12T02:49:55.657Z,98144.55
2018-09-12T02:52:24.169Z,98142.43
2018-09-12T02:54:52.699Z,98142.43
2018-09-12T02:57:21.220Z,98141.55
2018-09-12T02:59:49.745Z,98142.38
2018-09-12T03:02:18.329Z,98140.87
2018-09-12T03:04:52.327Z,98141.28
2018-09-12T03:07:20.867Z,98131.86
2018-09-12T03:09:49.468Z,98131.47
2018-09-12T03:12:17.991Z,98128.91
2018-09-12T03:14:46.540Z,98127.14
2018-09-12T03:17:15.387Z,98128.41
2018-09-12T03:19:43.940Z,98129.30
2018-09-12T03:22:12.475Z,98121.62
2018-09-12T03:24:41.075Z,98121.62
2018-09-12T03:27:09.739Z,98113.94
2018-09-12T03:29:38.311Z,98111.77
2018-09-12T03:32:07.150Z,98115.67
2018-09-12T03:34:36.044Z,98118.17
2018-09-12T03:37:04.756Z,98120.73
2018-09-12T03:39:33.478Z,98119.89
2018-09-12T03:42:02.166Z,98117.33
2018-09-12T03:44:30.783Z,98117.33
2018-09-12T03:46:59.386Z,98117.33
2018-09-12T03:49:28.233Z,98115.16
2018-09-12T03:51:56.967Z,98118.60
2018-09-12T03:54:25.635Z,98117.72
2018-09-12T03:56:54.289Z,98112.60
2018-09-12T03:59:22.957Z,98107.48
2018-09-12T04:01:51.799Z,98107.08
2018-09-12T04:04:20.307Z,98108.36
2018-09-12T04:06:48.887Z,98106.25
2018-09-12T04:09:17.424Z,98105.80
2018-09-12T04:11:46.073Z,98105.37
2018-09-12T04:14:14.636Z,98104.91
2018-09-12T04:16:43.219Z,98099.80
2018-09-12T04:19:11.796Z,98101.96
2018-09-12T04:21:40.362Z,97773.09
2018-09-12T04:24:08.994Z,98102.36
2018-09-12T04:26:37.598Z,98105.80
2018-09-12T04:29:06.232Z,98099.40
2018-09-12T04:31:34.842Z,98103.45
2018-09-12T04:34:03.399Z,98095.83
2018-09-12T04:36:32.409Z,98098.84
2018-09-12T04:39:00.980Z,98095.18
2018-09-12T04:41:29.589Z,98096.01
2018-09-12T04:43:58.234Z,98097.23
2018-09-12T04:46:26.764Z,98095.07
2018-09-12T04:48:56.028Z,98097.63
2018-09-12T04:51:24.736Z,98093.80
2018-09-12T04:53:53.279Z,98093.34
2018-09-12T04:56:21.915Z,98097.13
2018-09-12T04:58:50.448Z,98097.95
2018-09-12T05:01:18.954Z,98097.13
2018-09-12T05:03:47.583Z,98098.80
2018-09-12T05:06:16.902Z,98098.35
2018-09-12T05:08:45.519Z,98096.30
2018-09-12T05:11:14.068Z,98094.56
2018-09-12T05:13:43.655Z,98092.41
2018-09-12T05:16:12.304Z,98094.52
2018-09-12T05:18:40.882Z,98096.67
2018-09-12T05:21:09.551Z,98093.28
2018-09-12T05:23:38.047Z,98099.30
2018-09-12T05:26:06.707Z,98095.45
2018-09-12T05:28:35.378Z,98096.73
2018-09-12T05:31:03.914Z,98103.58
2018-09-12T05:33:32.468Z,98104.41
2018-09-12T05:36:01.024Z,98104.47
2018-09-12T05:38:29.522Z,98098.46
2018-09-12T05:40:59.025Z,98106.59
2018-09-12T05:43:27.546Z,98105.31
2018-09-12T05:45:56.112Z,98102.02
2018-09-12T05:48:24.727Z,98101.13
2018-09-12T05:50:53.347Z,98104.09
2018-09-12T05:53:21.903Z,98103.30
2018-09-12T05:55:50.408Z,98097.29
2018-09-12T05:58:18.986Z,98094.73
2018-09-12T06:00:47.515Z,98091.77
2018-09-12T06:03:16.058Z,98099.45
2018-09-12T06:05:44.587Z,98095.72
2018-09-12T06:08:13.243Z,98100.41
2018-09-12T06:10:41.852Z,98094.78
2018-09-12T06:13:10.398Z,98099.84
2018-09-12T06:15:39.047Z,98093.80
2018-09-12T06:18:07.620Z,98092.89
2018-09-12T06:20:36.232Z,98091.06
2018-09-12T06:23:04.884Z,98090.56
2018-09-12T06:25:33.471Z,98091.79
2018-09-12T06:28:02.055Z,98099.47
2018-09-12T06:30:30.611Z,98106.70
2018-09-12T06:32:59.246Z,98107.92
2018-09-12T06:35:27.789Z,98102.32
2018-09-12T06:37:57.250Z,98108.72
2018-09-12T06:40:27.948Z,98105.71
2018-09-12T06:42:56.623Z,98105.31
2018-09-12T06:45:25.142Z,98100.19
2018-09-12T06:47:53.771Z,98103.60
2018-09-12T06:50:22.264Z,98098.03
2018-09-12T06:52:50.894Z,98095.07
2018-09-12T06:55:19.456Z,98099.31
2018-09-12T06:57:48.060Z,98091.57
2018-09-12T07:00:16.658Z,98095.81
2018-09-12T07:02:45.220Z,98105.20
2018-09-12T07:05:14.439Z,98100.88
2018-09-12T07:07:43.140Z,98103.87
2018-09-12T07:10:11.778Z,98103.44
2018-09-12T07:12:40.513Z,98100.03
2018-09-12T07:15:10.163Z,98094.91
2018-09-12T07:17:38.764Z,98094.96
2018-09-12T07:20:07.493Z,98092.75
2018-09-12T07:22:36.049Z,98097.92
2018-09-12T07:25:04.678Z,98093.20
2018-09-12T07:27:33.350Z,98093.25
2018-09-12T07:30:01.993Z,98096.69
2018-09-12T07:32:30.678Z,97763.78
2018-09-12T07:35:00.180Z,98096.69
2018-09-12T07:37:28.797Z,98098.86
2018-09-12T07:39:58.286Z,98099.70
2018-09-12T07:42:26.815Z,98104.03
2018-09-12T07:45:01.904Z,98108.66
2018-09-12T07:47:30.505Z,98110.83
2018-09-12T07:49:59.064Z,98115.55
2018-09-12T07:52:28.235Z,98111.72
2018-09-12T07:54:57.875Z,98107.88
2018-09-12T07:57:26.493Z,98108.27
2018-09-12T07:59:56.058Z,98107.44
2018-09-12T08:02:24.682Z,98107.44
2018-09-12T08:04:54.295Z,98112.16
2018-09-12T08:07:23.755Z,98118.56
2018-09-12T08:09:52.364Z,98118.96
2018-09-12T08:12:21.840Z,98121.58
2018-09-12T08:14:50.286Z,98112.44
2018-09-12T08:17:18.836Z,98116.73
2018-09-12T08:19:47.344Z,98120.17
2018-09-12T08:22:15.848Z,98123.19
2018-09-12T08:24:44.315Z,98122.73
2018-09-12T08:27:12.829Z,98122.34
2018-09-12T08:29:41.324Z,98124.41
2018-09-12T08:32:09.793Z,98121.45
2018-09-12T08:34:38.280Z,98114.66
2018-09-12T08:37:06.776Z,98116.78
2018-09-12T08:39:35.286Z,98112.55
2018-09-12T08:42:03.764Z,98115.11
2018-09-12T08:44:32.283Z,98120.84
2018-09-12T08:47:00.806Z,98118.67
2018-09-12T08:49:29.388Z,98121.62
2018-09-12T08:51:57.863Z,98114.78
2018-09-12T08:54:26.342Z,98114.78
2018-09-12T08:56:55.033Z,98110.05
2018-09-12T08:59:23.393Z,98113.50
2018-09-12T09:01:52.091Z,98112.22
2018-09-12T09:04:20.575Z,98108.77
2018-09-12T09:06:49.033Z,98110.54
2018-09-12T09:09:17.540Z,98110.05
2018-09-12T09:11:46.018Z,98105.42
2018-09-12T09:14:14.551Z,98107.98
2018-09-12T09:16:43.044Z,98110.11
2018-09-12T09:19:11.525Z,98110.11
2018-09-12T09:21:40.013Z,98106.75
2018-09-12T09:24:08.568Z,98105.93
2018-09-12T09:26:37.040Z,98109.77
2018-09-12T09:29:05.529Z,98107.61
2018-09-12T09:31:33.997Z,98111.45
2018-09-12T09:34:02.480Z,98108.03
2018-09-12T09:36:30.988Z,98107.16
2018-09-12T09:38:59.489Z,98105.48
2018-09-12T09:41:27.974Z,98105.93
2018-09-12T09:43:56.614Z,98094.80
2018-09-12T09:46:25.080Z,98095.29
2018-09-12T09:48:53.542Z,98094.01
2018-09-12T09:51:22.020Z,98094.41
2018-09-12T09:53:50.555Z,98091.02
2018-09-12T09:56:19.058Z,98088.45
2018-09-12T09:58:47.534Z,98094.41
2018-09-12T10:01:21.377Z,98092.30
2018-09-12T10:04:56.752Z,98088.22
2018-09-12T10:07:30.327Z,98083.15
2018-09-12T10:10:03.668Z,98080.98
2018-09-12T10:12:32.504Z,98085.27
2018-09-12T10:15:01.714Z,98080.14
2018-09-12T10:17:30.180Z,98076.30
2018-09-12T10:19:58.961Z,98077.98
2018-09-12T10:22:27.472Z,98082.70
2018-09-12T10:24:55.976Z,98082.64
2018-09-12T10:27:24.556Z,98084.77
2018-09-12T10:29:53.067Z,98077.53
2018-09-12T10:32:21.571Z,98072.41
2018-09-12T10:34:50.051Z,98078.80
2018-09-12T10:37:18.992Z,98077.58
2018-09-12T10:39:47.472Z,98067.34
2018-09-12T10:42:15.974Z,98065.57
2018-09-12T10:44:44.469Z,98074.97
2018-09-12T10:47:19.267Z,98061.33
2018-09-12T10:49:47.740Z,98065.57
2018-09-12T10:52:16.215Z,98061.33
2018-09-12T10:54:44.689Z,98056.61
2018-09-12T10:57:13.211Z,98059.22
2018-09-12T10:59:41.700Z,98051.92
2018-09-12T11:02:10.200Z,98048.92
2018-09-12T11:04:38.682Z,98043.80
2018-09-12T11:07:07.185Z,98038.23
2018-09-12T11:09:35.680Z,98039.97
2018-09-12T11:12:04.215Z,98038.69
2018-09-12T11:14:32.782Z,98035.27
2018-09-12T11:17:01.329Z,98033.56
2018-09-12T11:19:29.818Z,98032.28
2018-09-12T11:21:58.638Z,98024.60
2018-09-12T11:24:27.133Z,98018.63
2018-09-12T11:26:55.606Z,98022.47
2018-09-12T11:29:24.091Z,98017.35
2018-09-12T11:31:52.579Z,98011.40
2018-09-12T11:34:21.159Z,98012.68
2018-09-12T11:36:49.576Z,98005.39
2018-09-12T11:39:18.096Z,98001.11
2018-09-12T11:41:46.593Z,98002.04
2018-09-12T11:44:15.079Z,97994.30
2018-09-12T11:46:43.563Z,97996.44
2018-09-12T11:49:12.114Z,97998.99
2018-09-12T11:51:41.377Z,97991.31
2018-09-12T11:54:09.907Z,97986.19
2018-09-12T11:56:38.385Z,97975.50
2018-09-12T11:59:06.860Z,97981.95
2018-09-12T12:01:35.344Z,97977.71
2018-09-12T12:04:03.872Z,97965.31
2018-09-12T12:06:32.361Z,97976.83
2018-09-12T12:09:00.849Z,97972.54
2018-09-12T12:11:29.360Z,97947.91
2018-09-12T12:13:57.850Z,97964.86
2018-09-12T12:16:26.359Z,97961.87
2018-09-12T12:18:54.862Z,97951.58
2018-09-12T12:21:23.347Z,97952.05
2018-09-12T12:23:51.826Z,97949.89
2018-09-12T12:26:20.326Z,97952.05
2018-09-12T12:28:48.818Z,97945.22
2018-09-12T12:31:17.324Z,97940.09
2018-09-12T12:33:46.028Z,97931.57
2018-09-12T12:36:14.647Z,97932.42
2018-09-12T12:38:43.128Z,97935.86
2018-09-12T12:41:11.760Z,97929.41
2018-09-12T12:43:40.224Z,97932.85
2018-09-12T12:46:08.831Z,97923.89
2018-09-12T12:48:37.373Z,97920.84
2018-09-12T12:51:06.186Z,97914.92
2018-09-12T12:53:34.713Z,97918.77
2018-09-12T12:56:03.299Z,97901.24
2018-09-12T12:58:31.863Z,97908.52
2018-09-12T13:01:00.368Z,97900.84
2018-09-12T13:03:28.866Z,97894.39
2018-09-12T13:05:57.422Z,97896.62
2018-09-12T13:08:25.960Z,97893.21
2018-09-12T13:10:54.548Z,97887.21
2018-09-12T13:13:23.123Z,97895.34
2018-09-12T13:15:51.712Z,97879.12
2018-09-12T13:18:20.303Z,97878.25
2018-09-12T13:20:48.890Z,97874.45
2018-09-12T13:23:17.467Z,97874.05
2018-09-12T13:25:46.062Z,97876.23
2018-09-12T13:28:14.650Z,97869.83
2018-09-12T13:30:43.252Z,97865.98
2018-09-12T13:33:11.884Z,97859.19
2018-09-12T13:35:40.457Z,97858.31
2018-09-12T13:38:09.068Z,97847.66
2018-09-12T13:40:37.676Z,97847.27
2018-09-12T13:43:06.317Z,97847.66
2018-09-12T13:45:34.910Z,97846.83
2018-09-12T13:48:03.490Z,97842.14
2018-09-12T13:50:32.113Z,97842.14
2018-09-12T13:53:00.666Z,97840.38
2018-09-12T13:55:29.198Z,97842.14
2018-09-12T13:57:57.854Z,97830.62
2018-09-12T14:00:30.223Z,97825.50
2018-09-12T14:02:59.750Z,97825.94
2018-09-12T14:05:28.369Z,97830.23
2018-09-12T14:07:56.987Z,97828.59
2018-09-12T14:10:25.595Z,97832.44
2018-09-12T14:12:54.188Z,97824.41
2018-09-12T14:15:22.776Z,97815.89
2018-09-12T14:17:51.668Z,97823.62
2018-09-12T14:20:20.324Z,97821.10
2018-09-12T14:22:49.043Z,97822.03
2018-09-12T14:25:17.738Z,97819.47
2018-09-12T14:27:46.257Z,97819.52
2018-09-12T14:30:14.745Z,97815.23
2018-09-12T14:32:43.236Z,97811.08
2018-09-12T14:35:11.736Z,97814.44
2018-09-12T14:37:40.216Z,97803.84
2018-09-12T14:40:09.046Z,97805.12
2018-09-12T14:42:37.539Z,97803.84
2018-09-12T14:45:06.375Z,97791.08
2018-09-12T14:47:34.855Z,97788.99
2018-09-12T14:50:03.348Z,97777.47
2018-09-12T14:52:31.828Z,97779.19
2018-09-12T14:55:00.403Z,97780.47
2018-09-12T14:57:28.898Z,97778.75
2018-09-12T14:59:57.362Z,97780.03
2018-09-12T15:02:25.831Z,97776.59
2018-09-12T15:04:54.344Z,97773.14
2018-09-12T15:07:22.825Z,97771.02
2018-09-12T15:09:51.342Z,97772.30
2018-09-12T15:12:19.826Z,97773.10
2018-09-12T15:14:48.460Z,97771.02
2018-09-12T15:17:17.067Z,97767.63
2018-09-12T15:19:45.795Z,97768.02
2018-09-12T15:22:14.365Z,97760.34
2018-09-12T15:24:43.006Z,97768.50
2018-09-12T15:27:11.621Z,97762.90
2018-09-12T15:29:40.897Z,97759.49
2018-09-12T15:32:09.433Z,97759.49
2018-09-12T15:34:38.348Z,97756.05
2018-09-12T15:37:07.004Z,97752.16
2018-09-12T15:39:35.869Z,97748.33
2018-09-12T15:42:04.412Z,97693.13
2018-09-12T15:44:33.200Z,97744.08
2018-09-12T15:47:01.964Z,97741.92
2018-09-12T15:49:30.629Z,97737.20
2018-09-12T15:51:59.308Z,97733.83
2018-09-12T15:54:28.049Z,97738.95
2018-09-12T15:56:56.706Z,97735.95
2018-09-12T15:59:25.388Z,97733.83
2018-09-12T16:01:54.075Z,97728.71
2018-09-12T16:04:22.773Z,97734.23
2018-09-12T16:06:51.423Z,97730.80
2018-09-12T16:09:20.122Z,97729.52
2018-09-12T16:11:48.821Z,97724.39
2018-09-12T16:14:17.414Z,97720.15
2018-09-12T16:16:46.058Z,97716.30
2018-09-12T16:19:14.664Z,97713.75
2018-09-12T16:21:43.379Z,97708.22
2018-09-12T16:24:11.998Z,97708.63
2018-09-12T16:26:40.693Z,97706.06
2018-09-12T16:29:09.191Z,97703.95
2018-09-12T16:31:37.735Z,97698.38
2018-09-12T16:34:06.330Z,97699.25
2018-09-12T16:36:34.870Z,97696.70
2018-09-12T16:39:03.500Z,97697.97
2018-09-12T16:41:32.013Z,97694.13
2018-09-12T16:44:01.514Z,97691.57
2018-09-12T16:46:30.119Z,97687.25
2018-09-12T16:48:58.731Z,97691.02
2018-09-12T16:51:27.490Z,97693.58
2018-09-12T16:53:56.146Z,97685.45
2018-09-12T16:56:24.804Z,97687.61
2018-09-12T16:58:53.714Z,97691.02
2018-09-12T17:01:22.388Z,97690.17
2018-09-12T17:03:50.961Z,97686.33
2018-09-12T17:06:19.735Z,97685.01
2018-09-12T17:08:48.283Z,97691.45
2018-09-12T17:11:16.814Z,97689.69
2018-09-12T17:13:45.505Z,97688.38
2018-09-12T17:16:14.136Z,97691.41
2018-09-12T17:18:42.869Z,97683.68
2018-09-12T17:21:11.461Z,97687.09
2018-09-12T17:23:40.069Z,97690.08
2018-09-12T17:26:08.864Z,97682.36
2018-09-12T17:28:37.473Z,97684.97
2018-09-12T17:31:06.107Z,97684.97
2018-09-12T17:33:34.723Z,97679.84
2018-09-12T17:36:03.982Z,97683.68
2018-09-12T17:38:32.686Z,97688.33
2018-09-12T17:41:01.187Z,97684.09
2018-09-12T17:43:29.672Z,97683.20
2018-09-12T17:45:58.163Z,97685.33
2018-09-12T17:48:26.643Z,97690.44
2018-09-12T17:50:55.121Z,97691.72
2018-09-12T17:53:38.028Z,97693.41
2018-09-12T17:56:06.594Z,97690.84
2018-09-12T17:58:35.132Z,97690.41
2018-09-12T18:01:03.662Z,97695.12
2018-09-12T18:03:32.143Z,97688.72
2018-09-12T18:06:00.809Z,97696.84
2018-09-12T18:08:29.329Z,97699.81
2018-09-12T18:10:57.871Z,97700.29
2018-09-12T18:13:26.370Z,97709.20
2018-09-12T18:15:54.883Z,97707.49
2018-09-12T18:18:23.428Z,97717.78
2018-09-12T18:20:51.946Z,97718.21
2018-09-12T18:23:20.451Z,97716.89
2018-09-12T18:25:48.975Z,97718.26
2018-09-12T18:28:17.475Z,97719.54
2018-09-12T18:30:46.025Z,97725.06
2018-09-12T18:33:14.540Z,97725.89
2018-09-12T18:35:43.112Z,97730.18
2018-09-12T18:38:11.594Z,97729.73
2018-09-12T18:40:40.079Z,97728.45
2018-09-12T18:43:08.694Z,97731.47
2018-09-12T18:45:37.094Z,97734.42
2018-09-12T18:48:06.042Z,97736.63
2018-09-12T18:50:34.736Z,97740.11
2018-09-12T18:53:03.324Z,97738.08
2018-09-12T18:55:31.974Z,97740.69
2018-09-12T18:58:00.638Z,97738.61
2018-09-12T19:00:29.355Z,97740.37
2018-09-12T19:02:58.369Z,97741.69
2018-09-12T19:05:27.063Z,97751.59
2018-09-12T19:07:55.684Z,97746.95
2018-09-12T19:10:24.292Z,97746.11
2018-09-12T19:12:52.952Z,97740.11
2018-09-12T19:15:21.618Z,97747.97
2018-09-12T19:17:50.255Z,97745.41
2018-09-12T19:20:18.949Z,97744.64
2018-09-12T19:22:47.604Z,97750.22
2018-09-12T19:25:16.292Z,97749.81
2018-09-12T19:27:44.915Z,97748.98
2018-09-12T19:30:13.566Z,97751.14
2018-09-12T19:32:42.235Z,97750.66
2018-09-12T19:35:10.803Z,97741.69
2018-09-12T19:37:39.559Z,97743.45
2018-09-12T19:40:08.184Z,97738.77
2018-09-12T19:42:36.739Z,97737.05
2018-09-12T19:45:05.447Z,97740.01
2018-09-12T19:47:34.102Z,97734.52
2018-09-12T19:50:02.733Z,97734.97
2018-09-12T19:52:31.300Z,97740.05
2018-09-12T19:54:59.978Z,97744.42
2018-09-12T19:57:28.719Z,97745.66
2018-09-12T19:59:58.325Z,97750.30
2018-09-12T20:02:31.873Z,97749.38
2018-09-12T20:05:01.061Z,97746.33
2018-09-12T20:07:31.760Z,97750.58
2018-09-12T20:10:00.327Z,97745.80
2018-09-12T20:12:28.981Z,97740.16
2018-09-12T20:14:57.582Z,97739.30
2018-09-12T20:17:26.266Z,97745.31
2018-09-12T20:19:56.150Z,97746.55
2018-09-12T20:22:26.410Z,97745.23
2018-09-12T20:24:55.093Z,97744.83
2018-09-12T20:27:23.790Z,97745.19
2018-09-12T20:29:52.416Z,97745.63
2018-09-12T20:32:21.051Z,97748.19
2018-09-12T20:34:49.679Z,97748.59
2018-09-12T20:37:18.320Z,97747.75
2018-09-12T20:39:46.945Z,97747.30
2018-09-12T20:42:15.554Z,97747.70
2018-09-12T20:44:44.233Z,97743.42
2018-09-12T20:47:13.104Z,97737.41
2018-09-12T20:49:41.736Z,97740.81
2018-09-12T20:52:10.304Z,97738.20
2018-09-12T20:54:38.811Z,97737.41
2018-09-12T20:57:07.486Z,97739.27
2018-09-12T20:59:36.083Z,97738.91
2018-09-12T21:02:04.638Z,97736.87
2018-09-12T21:04:33.201Z,97729.95
2018-09-12T21:07:01.952Z,97725.26
2018-09-12T21:09:30.487Z,97729.50
2018-09-12T21:11:59.066Z,97728.58
2018-09-12T21:14:27.636Z,97726.89
2018-09-12T21:16:56.172Z,97725.62
2018-09-12T21:19:24.862Z,97730.73
2018-09-12T21:21:53.416Z,97727.34
2018-09-12T21:24:22.011Z,97721.37
2018-09-12T21:26:50.650Z,97721.37
2018-09-12T21:29:19.178Z,97724.38
2018-09-12T21:31:47.763Z,97721.41
2018-09-12T21:34:16.358Z,97720.17
2018-09-12T21:36:45.018Z,97717.66
2018-09-12T21:39:13.609Z,97724.91
2018-09-12T21:41:42.182Z,97727.95
2018-09-12T21:44:10.747Z,97720.63
2018-09-12T21:46:39.279Z,96994.00
2018-09-12T21:49:07.878Z,97720.70
2018-09-12T21:51:36.459Z,97720.70
2018-09-12T21:54:05.026Z,97718.55
2018-09-12T21:56:33.593Z,97708.77
2018-09-12T21:59:02.174Z,97708.34
2018-09-12T22:01:30.705Z,97715.58
2018-09-12T22:03:59.264Z,97718.59
2018-09-12T22:06:27.810Z,97716.91
2018-09-12T22:08:56.421Z,97712.18
2018-09-12T22:11:25.110Z,97706.25
2018-09-12T22:13:53.644Z,97707.53
2018-09-12T22:16:22.776Z,97708.81
2018-09-12T22:18:51.330Z,97713.46
2018-09-12T22:21:19.917Z,97716.91
2018-09-12T22:23:48.474Z,97719.47
2018-09-12T22:26:17.103Z,97716.03
2018-09-12T22:28:45.672Z,97716.46
2018-09-12T22:31:14.355Z,97718.55
2018-09-12T22:33:42.897Z,97708.69
2018-09-12T22:36:12.126Z,97704.80
2018-09-12T22:38:40.806Z,97706.53
2018-09-12T22:41:09.410Z,97707.41
2018-09-12T22:43:38.060Z,97703.61
2018-09-12T22:46:06.641Z,97705.29
2018-09-12T22:48:35.363Z,97709.53
2018-09-12T22:51:04.054Z,97701.36
2018-09-12T22:53:32.635Z,97699.20
2018-09-12T22:56:01.989Z,97695.36
2018-09-12T22:58:30.783Z,97701.32
2018-09-12T23:00:59.363Z,97691.08
2018-09-12T23:03:28.006Z,97698.31
2018-09-12T23:05:56.539Z,97688.47
2018-09-12T23:08:25.262Z,97685.87
2018-09-12T23:10:53.830Z,97684.14
2018-09-12T23:13:22.390Z,97685.42
2018-09-12T23:15:50.940Z,97690.55
2018-09-12T23:18:19.687Z,97688.83
2018-09-12T23:20:48.293Z,97686.70
2018-09-12T23:23:16.858Z,97682.42
2018-09-12T23:25:45.466Z,97677.30
2018-09-12T23:28:14.043Z,97674.30
2018-09-12T23:30:42.575Z,97668.77
2018-09-12T23:33:11.136Z,97675.17
2018-09-12T23:35:39.724Z,97671.30
2018-09-12T23:38:08.261Z,97663.61
2018-09-12T23:40:36.867Z,97661.45
2018-09-12T23:43:05.502Z,97663.13
2018-09-12T23:45:34.107Z,97669.09
2018-09-12T23:48:02.659Z,97674.66
2018-09-12T23:50:31.290Z,97672.97
2018-09-12T23:52:59.946Z,97664.01
2018-09-12T23:55:28.516Z,97661.48
2018-09-12T23:57:57.120Z,97659.77
